Time;durP1;ratioP1;P1;durP2;ratioP2;P2;SDS_P1;SDS_P2;PMS_P1;PMS_P2;Temp;Humidity;BMP_temperature;BMP_pressure;BME280_temperature;BME280_humidity;BME280_pressure;Samples;Min_cycle;Max_cycle;Signal;HPM_P1;HPM_P2
2021/05/05 00:00:10;;;;;;;3.97;2.07;;;8.40;1.00;;;;;;5074787;28;20168;-88
2021/05/05 00:02:36;;;;;;;4.70;2.40;;;8.40;1.00;;;;;;5074684;28;20215;-80
2021/05/05 00:05:02;;;;;;;7.23;3.00;;;8.50;1.00;;;;;;5074951;28;20188;-77
2021/05/05 00:07:28;;;;;;;8.27;2.80;;;8.60;1.00;;;;;;5074266;28;20714;-84
2021/05/05 00:09:53;;;;;;;4.50;1.90;;;8.40;1.00;;;;;;5075086;28;20648;-85
2021/05/05 00:12:19;;;;;;;3.10;2.10;;;8.40;1.00;;;;;;5074396;28;20238;-85
2021/05/05 00:14:45;;;;;;;6.77;2.10;;;8.30;1.00;;;;;;5075094;28;20160;-80
2021/05/05 00:17:11;;;;;;;3.47;2.13;;;8.30;1.00;;;;;;5075746;28;20172;-83
2021/05/05 00:19:37;;;;;;;2.93;1.70;;;8.30;1.00;;;;;;5074910;28;20168;-89
2021/05/05 00:22:03;;;;;;;5.23;1.70;;;8.30;1.00;;;;;;5074188;28;20206;-79
2021/05/05 00:24:29;;;;;;;4.30;1.70;;;8.30;1.00;;;;;;5074240;28;20229;-83
2021/05/05 00:26:54;;;;;;;3.57;1.90;;;8.40;1.00;;;;;;5074092;28;20180;-82
2021/05/05 00:29:20;;;;;;;4.83;2.20;;;8.50;1.00;;;;;;5074008;28;20163;-76
2021/05/05 00:31:46;;;;;;;5.17;1.87;;;8.50;1.00;;;;;;5073961;28;20632;-87
2021/05/05 00:34:12;;;;;;;5.57;1.83;;;8.60;1.00;;;;;;5074050;28;20262;-87
2021/05/05 00:36:38;;;;;;;6.13;2.00;;;8.60;1.00;;;;;;5074170;28;20720;-85
2021/05/05 00:39:05;;;;;;;5.17;1.97;;;8.50;1.00;;;;;;5074434;28;20208;-79
2021/05/05 00:41:31;;;;;;;5.00;2.27;;;8.60;1.00;;;;;;5072560;28;20179;-90
2021/05/05 00:43:57;;;;;;;4.60;2.03;;;8.40;1.00;;;;;;5073701;28;20168;-84
2021/05/05 00:46:23;;;;;;;4.67;1.90;;;8.40;1.00;;;;;;5074013;28;20168;-82
2021/05/05 00:48:49;;;;;;;4.87;2.27;;;8.40;1.00;;;;;;5073850;28;20172;-79
2021/05/05 00:51:14;;;;;;;4.30;1.90;;;8.50;1.00;;;;;;5073553;28;20172;-79
2021/05/05 00:53:41;;;;;;;7.10;2.27;;;8.50;1.00;;;;;;5073811;28;20168;-90
2021/05/05 00:56:07;;;;;;;3.13;1.80;;;8.40;1.00;;;;;;5073578;28;20156;-79
2021/05/05 00:58:33;;;;;;;5.37;2.03;;;8.50;1.00;;;;;;5073146;28;20694;-87
2021/05/05 01:00:59;;;;;;;5.00;2.07;;;8.30;1.00;;;;;;5073605;28;20172;-80
2021/05/05 01:03:25;;;;;;;3.53;1.87;;;8.40;1.00;;;;;;5073250;28;20553;-79
2021/05/05 01:05:51;;;;;;;3.47;1.70;;;8.30;1.00;;;;;;5073716;28;20172;-78
2021/05/05 01:08:20;;;;;;;3.70;2.17;;;8.20;1.00;;;;;;5074203;28;20176;-78
2021/05/05 01:10:46;;;;;;;3.80;2.10;;;8.20;1.00;;;;;;5073553;28;20169;-77
2021/05/05 01:13:13;;;;;;;4.03;2.10;;;8.10;1.00;;;;;;5073115;28;20214;-87
2021/05/05 01:15:39;;;;;;;5.23;2.73;;;8.20;1.00;;;;;;5072104;28;20278;-83
2021/05/05 01:18:05;;;;;;;4.27;2.03;;;8.40;1.00;;;;;;5073039;28;20168;-78
2021/05/05 01:20:31;;;;;;;3.90;2.20;;;8.30;1.00;;;;;;5073546;28;20218;-81
2021/05/05 01:22:57;;;;;;;4.37;2.20;;;8.30;1.00;;;;;;5072162;28;20333;-78
2021/05/05 01:25:23;;;;;;;5.60;2.20;;;8.20;1.00;;;;;;5073419;28;20169;-79
2021/05/05 01:27:49;;;;;;;5.20;2.17;;;8.30;1.00;;;;;;5072972;28;20173;-78
2021/05/05 01:30:17;;;;;;;6.30;2.63;;;8.30;1.00;;;;;;5073167;28;20195;-76
2021/05/05 01:32:43;;;;;;;7.80;2.83;;;8.20;1.00;;;;;;5072689;28;20235;-87
2021/05/05 01:35:11;;;;;;;6.23;2.57;;;8.20;1.00;;;;;;5073335;28;20172;-79
2021/05/05 01:37:40;;;;;;;5.83;2.13;;;8.20;1.00;;;;;;5073348;28;20172;-80
2021/05/05 01:40:06;;;;;;;5.57;2.50;;;8.20;1.00;;;;;;5073371;28;20207;-86
2021/05/05 01:42:32;;;;;;;6.20;2.77;;;8.20;1.00;;;;;;5073116;28;20620;-87
2021/05/05 01:44:58;;;;;;;5.30;2.93;;;8.20;1.00;;;;;;5072254;28;20180;-88
2021/05/05 01:47:24;;;;;;;4.87;2.37;;;8.20;1.00;;;;;;5073377;28;20168;-81
2021/05/05 01:49:49;;;;;;;4.50;2.43;;;8.20;1.00;;;;;;5073064;28;20176;-84
2021/05/05 01:52:17;;;;;;;5.30;2.77;;;8.20;1.00;;;;;;5073323;28;20605;-84
2021/05/05 01:54:43;;;;;;;5.63;2.53;;;8.30;1.00;;;;;;5073419;28;20175;-90
2021/05/05 01:57:21;;;;;;;4.10;2.47;;;8.20;1.00;;;;;;5073321;28;20275;-85
2021/05/05 01:59:48;;;;;;;6.70;2.50;;;8.20;1.00;;;;;;5073010;28;20172;-89
2021/05/05 02:02:14;;;;;;;5.40;2.57;;;8.20;1.00;;;;;;5073285;28;20188;-86
2021/05/05 02:04:41;;;;;;;6.47;2.73;;;8.10;1.00;;;;;;5073749;28;20199;-89
2021/05/05 02:07:08;;;;;;;5.13;2.90;;;8.10;1.00;;;;;;5073630;28;20281;-87
2021/05/05 02:09:34;;;;;;;5.47;3.40;;;8.10;1.00;;;;;;5073365;28;20177;-88
2021/05/05 02:11:59;;;;;;;9.20;3.40;;;8.10;1.00;;;;;;5073153;28;20160;-81
2021/05/05 02:14:25;;;;;;;10.50;3.60;;;8.00;1.00;;;;;;5073414;28;20160;-88
2021/05/05 02:16:57;;;;;;;11.83;4.30;;;8.00;5.70;;;;;;5073132;28;20628;-88
2021/05/05 02:19:23;;;;;;;11.80;4.17;;;8.10;1.80;;;;;;5072728;28;20171;-79
2021/05/05 02:21:49;;;;;;;10.90;3.47;;;8.20;1.00;;;;;;5073170;28;20196;-86
2021/05/05 02:24:15;;;;;;;11.73;4.13;;;8.20;1.00;;;;;;5073162;28;20176;-84
2021/05/05 02:26:40;;;;;;;9.37;3.97;;;8.20;2.90;;;;;;5073142;28;20164;-87
2021/05/05 02:29:06;;;;;;;9.80;4.30;;;8.20;1.00;;;;;;5072927;28;20214;-87
2021/05/05 02:31:33;;;;;;;10.03;4.23;;;8.10;3.40;;;;;;5072824;28;20560;-85
2021/05/05 02:33:59;;;;;;;16.07;4.30;;;8.10;11.20;;;;;;5073225;28;20199;-86
2021/05/05 02:36:25;;;;;;;10.57;4.10;;;8.20;7.30;;;;;;5076835;28;20210;-82
2021/05/05 02:38:51;;;;;;;13.73;4.60;;;8.20;4.20;;;;;;5076488;28;20185;-89
2021/05/05 02:41:17;;;;;;;14.43;4.07;;;8.10;5.70;;;;;;5075709;28;20165;-82
2021/05/05 02:43:42;;;;;;;11.53;4.13;;;8.00;12.80;;;;;;5077575;28;20192;-81
2021/05/05 02:46:08;;;;;;;12.57;3.60;;;8.00;18.80;;;;;;5076990;28;20168;-79
2021/05/05 02:48:33;;;;;;;9.50;3.90;;;7.90;22.10;;;;;;5077109;28;20161;-86
2021/05/05 02:51:00;;;;;;;11.47;3.90;;;8.00;19.50;;;;;;5076296;28;20168;-77
2021/05/05 02:53:26;;;;;;;14.17;4.67;;;8.00;19.10;;;;;;5076720;28;20176;-87
2021/05/05 02:55:51;;;;;;;10.23;3.90;;;7.90;20.90;;;;;;5076368;28;20720;-77
2021/05/05 02:58:17;;;;;;;13.07;4.27;;;7.90;21.00;;;;;;5076363;28;20168;-84
2021/05/05 03:00:43;;;;;;;13.13;4.07;;;7.90;19.60;;;;;;5076705;28;20580;-90
2021/05/05 03:03:08;;;;;;;11.40;4.47;;;7.90;16.10;;;;;;5076381;28;20238;-82
2021/05/05 03:05:34;;;;;;;11.67;4.37;;;7.90;14.60;;;;;;5076554;28;20168;-77
2021/05/05 03:07:59;;;;;;;9.27;4.03;;;7.70;23.20;;;;;;5076154;28;20169;-79
2021/05/05 03:10:25;;;;;;;8.97;4.13;;;7.50;28.00;;;;;;5076594;28;20169;-78
2021/05/05 03:12:50;;;;;;;9.53;4.83;;;7.60;24.60;;;;;;5076889;28;20176;-83
2021/05/05 03:15:16;;;;;;;12.83;4.13;;;7.50;24.10;;;;;;5076373;28;20225;-78
2021/05/05 03:17:42;;;;;;;11.43;4.20;;;7.40;27.80;;;;;;5075986;28;20180;-85
2021/05/05 03:20:10;;;;;;;10.87;4.13;;;7.30;31.00;;;;;;5075862;28;20172;-88
2021/05/05 03:22:36;;;;;;;13.40;5.13;;;7.30;33.80;;;;;;5075729;28;20207;-84
2021/05/05 03:25:03;;;;;;;10.23;4.50;;;7.20;35.50;;;;;;5075641;28;20187;-80
2021/05/05 03:27:29;;;;;;;9.17;3.90;;;7.20;37.80;;;;;;5075335;28;20172;-78
2021/05/05 03:29:55;;;;;;;11.00;4.20;;;7.20;39.20;;;;;;5075539;28;20535;-85
2021/05/05 03:32:20;;;;;;;13.10;4.43;;;7.20;38.80;;;;;;5074305;28;20210;-81
2021/05/05 03:34:47;;;;;;;9.87;4.07;;;7.20;38.70;;;;;;5075666;28;20218;-77
2021/05/05 03:37:14;;;;;;;11.33;4.10;;;7.20;40.30;;;;;;5075908;28;20176;-89
2021/05/05 03:39:39;;;;;;;11.60;3.90;;;7.20;41.60;;;;;;5075835;28;20177;-78
2021/05/05 03:42:05;;;;;;;10.97;3.87;;;7.20;40.80;;;;;;5075770;28;20200;-88
2021/05/05 03:44:32;;;;;;;13.03;4.40;;;7.10;43.10;;;;;;5074683;28;20181;-78
2021/05/05 03:46:59;;;;;;;12.53;4.17;;;7.10;46.00;;;;;;5074577;28;20172;-79
2021/05/05 03:49:25;;;;;;;10.63;4.23;;;7.10;43.90;;;;;;5075457;28;20629;-82
2021/05/05 03:51:50;;;;;;;10.33;4.57;;;7.20;43.60;;;;;;5074859;28;20237;-85
2021/05/05 03:54:17;;;;;;;12.10;4.50;;;7.20;40.80;;;;;;5075554;28;20700;-80
2021/05/05 03:56:44;;;;;;;10.40;4.10;;;7.20;40.10;;;;;;5074004;28;20168;-88
2021/05/05 03:59:09;;;;;;;9.87;3.70;;;7.30;35.70;;;;;;5075248;28;20164;-82
2021/05/05 04:01:35;;;;;;;10.53;4.63;;;7.30;32.70;;;;;;5074887;28;20603;-78
2021/05/05 04:04:00;;;;;;;9.87;4.10;;;7.40;32.80;;;;;;5073641;28;20196;-78
2021/05/05 04:06:26;;;;;;;10.23;4.13;;;7.30;27.40;;;;;;5074527;28;20252;-78
2021/05/05 04:08:52;;;;;;;14.17;4.63;;;7.40;27.70;;;;;;5074639;28;20511;-87
2021/05/05 04:11:19;;;;;;;12.13;4.60;;;7.40;26.70;;;;;;5074942;28;20407;-79
2021/05/05 04:13:44;;;;;;;9.20;3.90;;;7.30;25.40;;;;;;5074764;28;20200;-81
2021/05/05 04:16:10;;;;;;;9.17;4.20;;;7.20;30.70;;;;;;5074411;28;20203;-77
2021/05/05 04:18:36;;;;;;;10.73;4.53;;;7.30;27.60;;;;;;5074514;28;20256;-80
2021/05/05 04:21:04;;;;;;;10.50;4.40;;;7.30;28.00;;;;;;5074781;28;20194;-83
2021/05/05 04:23:31;;;;;;;9.47;4.37;;;7.20;29.20;;;;;;5073816;28;20298;-86
2021/05/05 04:25:57;;;;;;;10.33;4.43;;;7.40;27.00;;;;;;5075387;28;20156;-87
2021/05/05 04:28:24;;;;;;;7.53;3.87;;;7.20;24.10;;;;;;5075119;28;20247;-79
2021/05/05 04:30:50;;;;;;;8.77;4.17;;;7.20;25.40;;;;;;5074929;28;20168;-85
2021/05/05 04:33:15;;;;;;;7.23;3.50;;;7.20;24.40;;;;;;5074155;28;20767;-77
2021/05/05 04:35:41;;;;;;;6.57;3.77;;;7.10;23.50;;;;;;5074315;28;20179;-79
2021/05/05 04:38:06;;;;;;;9.17;4.07;;;7.10;25.10;;;;;;5073963;28;20617;-79
2021/05/05 04:40:32;;;;;;;7.77;3.60;;;7.00;31.70;;;;;;5074052;28;20214;-84
2021/05/05 04:42:58;;;;;;;5.73;3.87;;;7.00;29.80;;;;;;5074022;28;20208;-89
2021/05/05 04:45:24;;;;;;;7.27;3.37;;;7.10;29.10;;;;;;5073713;28;20176;-86
2021/05/05 04:47:49;;;;;;;9.37;3.93;;;7.10;29.10;;;;;;5074100;28;20593;-77
2021/05/05 04:50:15;;;;;;;9.50;4.53;;;7.10;28.50;;;;;;5073800;28;20210;-85
2021/05/05 04:52:41;;;;;;;8.57;3.37;;;7.10;31.00;;;;;;5073852;28;20172;-86
2021/05/05 04:55:07;;;;;;;12.13;3.53;;;7.20;25.80;;;;;;5073811;28;20318;-87
2021/05/05 04:57:34;;;;;;;10.50;4.47;;;7.20;26.80;;;;;;5073295;28;20538;-78
2021/05/05 04:59:59;;;;;;;6.83;3.80;;;7.20;23.70;;;;;;5073410;28;20164;-86
2021/05/05 05:02:25;;;;;;;13.90;5.90;;;7.30;24.70;;;;;;5074065;28;20192;-82
2021/05/05 05:04:51;;;;;;;6.90;4.10;;;7.30;24.70;;;;;;5074682;28;20604;-77
2021/05/05 05:07:16;;;;;;;7.17;4.00;;;7.20;27.10;;;;;;5075900;28;20218;-87
2021/05/05 05:09:42;;;;;;;6.23;3.47;;;7.30;26.10;;;;;;5074831;28;20237;-82
2021/05/05 05:12:09;;;;;;;7.17;3.80;;;7.40;24.20;;;;;;5073301;28;20679;-88
2021/05/05 05:14:38;;;;;;;11.70;3.83;;;7.40;17.80;;;;;;5073593;28;20175;-77
2021/05/05 05:17:04;;;;;;;5.53;3.53;;;7.20;26.40;;;;;;5073242;28;20168;-76
2021/05/05 05:19:29;;;;;;;9.60;3.80;;;7.20;31.00;;;;;;5072938;28;20173;-80
2021/05/05 05:21:55;;;;;;;8.23;3.80;;;7.20;31.40;;;;;;5072023;28;20199;-81
2021/05/05 05:24:21;;;;;;;8.27;4.27;;;7.30;32.30;;;;;;5073576;28;20171;-81
2021/05/05 05:26:47;;;;;;;13.63;4.37;;;7.30;32.70;;;;;;5073441;28;20168;-82
2021/05/05 05:29:12;;;;;;;9.43;3.97;;;7.30;30.00;;;;;;5073560;28;20297;-90
2021/05/05 05:31:38;;;;;;;12.77;4.60;;;7.40;28.10;;;;;;5073675;28;20173;-84
2021/05/05 05:34:04;;;;;;;10.37;4.13;;;7.40;30.70;;;;;;5073548;28;20196;-80
2021/05/05 05:36:29;;;;;;;8.43;3.67;;;7.50;29.50;;;;;;5073922;28;20180;-80
2021/05/05 05:39:05;;;;;;;11.93;3.67;;;7.50;26.00;;;;;;5074177;28;20233;-87
2021/05/05 05:41:30;;;;;;;6.07;3.43;;;7.60;15.50;;;;;;5073992;28;20267;-87
2021/05/05 05:43:56;;;;;;;6.80;3.90;;;7.70;16.50;;;;;;5073640;28;20247;-87
2021/05/05 05:46:21;;;;;;;6.93;3.77;;;7.80;7.10;;;;;;5074688;28;20267;-86
2021/05/05 05:48:47;;;;;;;10.33;4.60;;;7.70;2.30;;;;;;5073754;28;20176;-84
2021/05/05 05:51:13;;;;;;;7.23;3.87;;;7.70;15.80;;;;;;5073426;28;20176;-83
2021/05/05 05:53:38;;;;;;;8.33;3.63;;;7.70;14.30;;;;;;5072969;28;20168;-80
2021/05/05 05:56:05;;;;;;;4.30;3.00;;;7.80;6.20;;;;;;5071123;28;20209;-84
2021/05/05 05:58:31;;;;;;;6.07;3.10;;;7.80;1.00;;;;;;5072428;28;20176;-88
2021/05/05 06:00:57;;;;;;;5.20;2.73;;;7.70;1.00;;;;;;5073549;28;20599;-77
2021/05/05 06:03:23;;;;;;;3.53;2.50;;;7.60;1.00;;;;;;5073011;28;20208;-82
2021/05/05 06:05:49;;;;;;;7.43;3.07;;;7.60;1.00;;;;;;5072301;28;20222;-81
2021/05/05 06:08:14;;;;;;;6.57;3.03;;;7.70;1.00;;;;;;5072602;28;20210;-87
2021/05/05 06:10:40;;;;;;;4.50;2.77;;;7.70;1.00;;;;;;5074558;28;20647;-87
2021/05/05 06:13:06;;;;;;;4.60;2.90;;;7.70;1.00;;;;;;5077907;28;20168;-85
2021/05/05 06:15:32;;;;;;;6.23;3.27;;;7.80;1.00;;;;;;5077437;28;20271;-82
2021/05/05 06:17:58;;;;;;;6.33;2.80;;;7.80;1.00;;;;;;5065862;28;20656;-88
2021/05/05 06:20:23;;;;;;;7.60;3.00;;;7.70;1.00;;;;;;5075644;28;20186;-81
2021/05/05 06:22:49;;;;;;;5.40;3.27;;;7.70;1.00;;;;;;5076418;28;20218;-80
2021/05/05 06:25:15;;;;;;;4.40;3.30;;;7.90;1.00;;;;;;5075212;28;20172;-81
2021/05/05 06:27:40;;;;;;;5.50;3.70;;;7.80;1.00;;;;;;5075489;28;20168;-79
2021/05/05 06:30:08;;;;;;;7.03;3.90;;;7.80;1.00;;;;;;5075758;28;20165;-76
2021/05/05 06:32:36;;;;;;;5.67;4.43;;;7.60;4.00;;;;;;5075209;28;20229;-77
2021/05/05 06:35:02;;;;;;;6.67;4.40;;;7.70;8.40;;;;;;5075558;28;20172;-76
2021/05/05 06:37:28;;;;;;;7.13;3.90;;;7.90;7.90;;;;;;5075079;28;20274;-77
2021/05/05 06:39:56;;;;;;;8.23;5.07;;;7.70;4.80;;;;;;5074201;28;20655;-84
2021/05/05 06:42:22;;;;;;;7.87;4.10;;;7.70;11.40;;;;;;5074817;28;20621;-79
2021/05/05 06:44:48;;;;;;;6.57;3.73;;;7.80;10.70;;;;;;5074221;28;20183;-76
2021/05/05 06:47:13;;;;;;;6.97;4.67;;;7.80;9.30;;;;;;5066599;28;20697;-82
2021/05/05 06:49:39;;;;;;;6.40;3.40;;;7.90;12.50;;;;;;5066337;28;20180;-75
2021/05/05 06:52:07;;;;;;;7.57;2.43;;;7.70;21.60;;;;;;5076100;28;20172;-77
2021/05/05 06:54:34;;;;;;;7.43;2.57;;;7.20;27.60;;;;;;5090976;28;20221;-79
2021/05/05 06:57:00;;;;;;;3.87;2.20;;;6.70;53.60;;;;;;5076175;28;20247;-80
2021/05/05 06:59:26;;;;;;;3.90;2.20;;;6.50;58.40;;;;;;5077628;28;20207;-80
2021/05/05 07:01:51;;;;;;;3.10;2.17;;;6.40;61.20;;;;;;5074632;28;20180;-78
2021/05/05 07:04:17;;;;;;;2.57;1.80;;;6.20;68.50;;;;;;5073762;28;20242;-75
2021/05/05 07:06:43;;;;;;;2.70;1.80;;;6.20;74.10;;;;;;5068195;28;20176;-77
2021/05/05 07:09:09;;;;;;;4.60;2.43;;;6.20;71.70;;;;;;5084765;28;20187;-79
2021/05/05 07:11:42;;;;;;;3.87;1.80;;;6.20;77.70;;;;;;5074941;28;20221;-76
2021/05/05 07:14:09;;;;;;;4.80;2.00;;;6.10;77.20;;;;;;5075462;28;20168;-77
2021/05/05 07:16:35;;;;;;;5.80;2.10;;;6.10;79.70;;;;;;5074641;28;20187;-78
2021/05/05 07:19:02;;;;;;;3.60;1.97;;;6.20;84.50;;;;;;5075413;28;20172;-77
2021/05/05 07:21:29;;;;;;;4.73;2.30;;;6.30;85.30;;;;;;5072564;28;20199;-77
2021/05/05 07:23:57;;;;;;;4.10;2.03;;;6.40;85.50;;;;;;5055228;28;20240;-75
2021/05/05 07:26:23;;;;;;;5.17;2.53;;;6.50;82.90;;;;;;5082423;28;20708;-80
2021/05/05 07:28:49;;;;;;;7.00;2.70;;;6.50;82.80;;;;;;5094647;28;20203;-76
2021/05/05 07:31:15;;;;;;;5.07;2.70;;;6.50;77.20;;;;;;5094382;28;20192;-78
2021/05/05 07:33:40;;;;;;;5.53;2.57;;;6.60;77.10;;;;;;5094096;28;20328;-84
2021/05/05 07:36:15;;;;;;;6.97;2.63;;;6.70;77.20;;;;;;5094914;28;20155;-83
2021/05/05 07:39:03;;;;;;;6.47;3.10;;;6.90;77.40;;;;;;5076877;28;20179;-81
2021/05/05 07:42:19;;;;;;;11.47;4.63;;;7.10;75.80;;;;;;5052504;28;20533;-79
2021/05/05 07:47:24;;;;;;;11.57;5.13;;;7.40;73.50;;;;;;5054501;28;20264;-79
2021/05/05 07:49:50;;;;;;;8.10;5.53;;;7.60;71.50;;;;;;5054157;28;20168;-77
2021/05/05 07:52:16;;;;;;;6.13;4.73;;;7.90;76.40;;;;;;5053227;28;20582;-78
2021/05/05 07:54:43;;;;;;;5.77;3.50;;;7.90;63.30;;;;;;5054275;28;20173;-83
2021/05/05 07:57:09;;;;;;;9.00;5.17;;;7.90;54.80;;;;;;5072996;28;20632;-83
2021/05/05 07:59:35;;;;;;;8.43;5.63;;;7.90;60.40;;;;;;5080373;28;20172;-81
2021/05/05 08:02:01;;;;;;;8.50;4.87;;;8.20;69.30;;;;;;5093535;28;20289;-81
2021/05/05 08:04:26;;;;;;;7.77;3.67;;;8.40;61.30;;;;;;5093943;28;20556;-80
2021/05/05 08:06:52;;;;;;;9.70;4.33;;;8.30;44.60;;;;;;5094064;28;20171;-81
2021/05/05 08:09:18;;;;;;;8.17;4.03;;;8.30;48.80;;;;;;5093265;28;20183;-79
2021/05/05 08:11:44;;;;;;;7.37;3.70;;;8.30;42.60;;;;;;5085397;28;20734;-76
2021/05/05 08:14:10;;;;;;;4.97;2.97;;;8.30;35.50;;;;;;5073106;28;20169;-77
2021/05/05 08:16:35;;;;;;;7.23;3.90;;;8.20;27.20;;;;;;5073155;28;20168;-78
2021/05/05 08:19:01;;;;;;;5.97;3.23;;;8.20;33.20;;;;;;5072809;28;20492;-83
2021/05/05 08:21:28;;;;;;;5.80;3.37;;;8.20;35.60;;;;;;5073544;28;20169;-80
2021/05/05 08:23:55;;;;;;;8.50;3.37;;;8.20;33.90;;;;;;5073546;28;20200;-78
2021/05/05 08:26:21;;;;;;;3.93;3.17;;;8.30;26.60;;;;;;5072609;28;20275;-79
2021/05/05 08:28:46;;;;;;;6.90;3.47;;;8.30;24.00;;;;;;5073106;28;20672;-79
2021/05/05 08:31:12;;;;;;;5.73;3.27;;;8.40;23.30;;;;;;5073017;28;20628;-78
2021/05/05 08:33:48;;;;;;;9.80;3.63;;;8.60;1.00;;;;;;5072839;28;20635;-78
2021/05/05 08:36:14;;;;;;;7.07;3.23;;;8.80;1.00;;;;;;5073970;28;20168;-76
2021/05/05 08:38:39;;;;;;;8.20;3.50;;;8.90;1.00;;;;;;5073373;28;20230;-77
2021/05/05 08:41:08;;;;;;;6.70;3.30;;;8.90;1.00;;;;;;5074353;28;20217;-76
2021/05/05 08:43:34;;;;;;;7.13;3.07;;;9.10;1.00;;;;;;5075516;28;20337;-77
2021/05/05 08:46:00;;;;;;;6.83;2.73;;;9.10;1.00;;;;;;5076030;28;20169;-77
2021/05/05 08:48:27;;;;;;;10.20;3.07;;;9.00;1.00;;;;;;5082212;28;20740;-76
2021/05/05 08:50:55;;;;;;;11.33;2.80;;;9.10;1.00;;;;;;5076132;28;20239;-77
2021/05/05 08:53:21;;;;;;;5.80;2.60;;;8.80;1.00;;;;;;5072910;28;20698;-78
2021/05/05 08:55:47;;;;;;;9.87;2.70;;;8.70;1.00;;;;;;5064716;28;20200;-76
2021/05/05 08:58:13;;;;;;;7.83;2.40;;;8.60;1.00;;;;;;5052211;28;20578;-77
2021/05/05 09:00:39;;;;;;;7.97;2.73;;;8.70;1.00;;;;;;5082887;28;20167;-77
2021/05/05 09:03:07;;;;;;;5.00;2.10;;;8.70;1.00;;;;;;5091003;28;20211;-80
2021/05/05 09:05:51;;;;;;;9.80;2.53;;;8.70;1.00;;;;;;5091820;28;20258;-77
2021/05/05 09:08:17;;;;;;;7.27;2.60;;;8.70;1.00;;;;;;5069886;28;20191;-86
2021/05/05 09:11:04;;;;;;;6.90;2.47;;;8.90;1.00;;;;;;5070602;28;20172;-79
2021/05/05 09:13:47;;;;;;;7.80;2.30;;;9.10;1.00;;;;;;5055865;28;20164;-79
2021/05/05 09:16:15;;;;;;;5.70;2.27;;;9.20;1.00;;;;;;5062424;28;20267;-79
2021/05/05 09:18:51;;;;;;;6.13;2.07;;;9.30;1.00;;;;;;5052457;28;20161;-78
2021/05/05 09:21:24;;;;;;;7.80;2.50;;;9.50;1.00;;;;;;5051662;28;20537;-78
2021/05/05 09:23:49;;;;;;;5.17;2.50;;;9.80;99.90;;;;;;5053244;28;20207;-76
2021/05/05 09:26:35;;;;;;;5.43;2.03;;;9.80;99.90;;;;;;5070937;28;20528;-78
2021/05/05 09:29:01;;;;;;;6.70;1.73;;;9.90;99.90;;;;;;5072104;28;20199;-80
2021/05/05 09:31:38;;;;;;;4.73;2.33;;;9.80;99.90;;;;;;5071887;28;20165;-75
2021/05/05 09:34:07;;;;;;;5.40;1.87;;;9.80;99.90;;;;;;5071950;28;20634;-76
2021/05/05 09:36:33;;;;;;;6.40;2.23;;;9.60;99.90;;;;;;5072023;28;20169;-78
2021/05/05 09:39:02;;;;;;;7.50;2.47;;;9.50;1.00;;;;;;5070349;28;20199;-76
2021/05/05 09:41:31;;;;;;;5.97;2.80;;;9.30;1.00;;;;;;5062571;28;20180;-77
2021/05/05 09:44:05;;;;;;;7.63;2.70;;;9.20;1.00;;;;;;5049596;28;20259;-76
2021/05/05 09:46:45;;;;;;;8.57;2.80;;;9.40;1.00;;;;;;5051536;28;20671;-79
2021/05/05 09:49:37;;;;;;;4.07;1.90;;;9.50;1.00;;;;;;5051366;28;20248;-79
2021/05/05 09:52:12;;;;;;;6.57;2.53;;;9.50;1.00;;;;;;5056949;28;20176;-78
2021/05/05 09:54:59;;;;;;;4.70;2.07;;;9.60;1.00;;;;;;5056016;28;20168;-79
2021/05/05 09:57:32;;;;;;;4.93;2.07;;;9.50;1.00;;;;;;5052048;28;20625;-79
2021/05/05 10:00:14;;;;;;;5.03;2.07;;;9.30;1.00;;;;;;5070850;28;20167;-79
2021/05/05 10:02:45;;;;;;;5.93;2.33;;;9.10;99.90;;;;;;5091757;28;20222;-78
2021/05/05 10:05:17;;;;;;;5.60;1.90;;;9.30;99.90;;;;;;5090572;28;20175;-80
2021/05/05 10:07:59;;;;;;;11.03;2.90;;;9.40;99.90;;;;;;5092277;28;20200;-79
2021/05/05 10:10:32;;;;;;;5.97;2.20;;;9.80;99.90;;;;;;5091224;28;20174;-79
2021/05/05 10:13:05;;;;;;;5.60;2.50;;;10.00;1.00;;;;;;5073510;28;20168;-80
2021/05/05 10:15:32;;;;;;;12.47;3.43;;;10.20;99.90;;;;;;5058057;28;20175;-79
2021/05/05 10:17:59;;;;;;;5.27;2.20;;;10.20;1.00;;;;;;5070886;28;20171;-79
2021/05/05 10:20:27;;;;;;;5.40;2.00;;;10.10;1.00;;;;;;5071645;28;20176;-78
2021/05/05 10:22:55;;;;;;;7.67;2.13;;;10.10;99.90;;;;;;5071865;28;20204;-79
2021/05/05 10:25:22;;;;;;;7.03;2.47;;;10.10;99.90;;;;;;5071295;28;20254;-80
2021/05/05 10:27:48;;;;;;;6.07;2.30;;;10.20;1.00;;;;;;5070983;28;20230;-80
2021/05/05 10:30:17;;;;;;;8.63;2.53;;;10.40;24.60;;;;;;5071404;28;20188;-79
2021/05/05 10:32:45;;;;;;;9.47;2.60;;;10.50;99.90;;;;;;5071497;28;20175;-80
2021/05/05 10:35:18;;;;;;;5.57;2.43;;;10.50;99.90;;;;;;5070745;28;20183;-78
2021/05/05 10:37:49;;;;;;;6.83;1.97;;;10.40;1.00;;;;;;5064901;28;20200;-78
2021/05/05 10:40:19;;;;;;;5.80;1.90;;;10.30;1.00;;;;;;5060034;28;20242;-79
2021/05/05 10:42:53;;;;;;;5.73;2.30;;;10.40;1.00;;;;;;5050776;28;20220;-79
2021/05/05 10:45:35;;;;;;;4.47;1.57;;;10.60;68.60;;;;;;5051476;28;20173;-80
2021/05/05 10:48:03;;;;;;;5.23;1.67;;;10.90;1.00;;;;;;5051678;28;20169;-80
2021/05/05 10:50:29;;;;;;;4.30;1.37;;;10.80;99.90;;;;;;5051112;28;20181;-80
2021/05/05 10:52:57;;;;;;;3.43;1.30;;;10.70;1.00;;;;;;5050620;28;20176;-80
2021/05/05 10:55:37;;;;;;;4.17;1.40;;;10.80;99.90;;;;;;5052321;28;20196;-80
2021/05/05 10:58:23;;;;;;;4.50;1.67;;;10.70;99.90;;;;;;5055431;28;20589;-81
2021/05/05 11:00:50;;;;;;;5.83;2.13;;;10.70;1.00;;;;;;5087926;28;20697;-81
2021/05/05 11:03:17;;;;;;;6.03;1.90;;;10.50;1.00;;;;;;5093294;28;20245;-79
2021/05/05 11:05:45;;;;;;;3.27;2.10;;;10.40;99.90;;;;;;5095455;28;20225;-80
2021/05/05 11:08:26;;;;;;;4.87;2.00;;;10.60;1.00;;;;;;5094630;28;20195;-81
2021/05/05 11:10:53;;;;;;;5.10;2.00;;;10.70;91.60;;;;;;5093937;28;20163;-79
2021/05/05 11:13:20;;;;;;;8.33;2.37;;;10.70;1.00;;;;;;5074967;28;20542;-76
2021/05/05 11:15:45;;;;;;;4.47;2.27;;;10.90;99.90;;;;;;5075034;28;20164;-81
2021/05/05 11:18:30;;;;;;;3.93;1.90;;;10.80;99.90;;;;;;5074501;28;20164;-80
2021/05/05 11:21:01;;;;;;;4.93;2.07;;;10.80;99.90;;;;;;5073724;28;20182;-79
2021/05/05 11:23:36;;;;;;;7.70;2.70;;;10.90;99.90;;;;;;5073697;28;20204;-80
2021/05/05 11:26:23;;;;;;;5.17;2.23;;;10.90;1.00;;;;;;5073633;28;20194;-79
2021/05/05 11:28:57;;;;;;;4.40;1.70;;;9.90;99.90;;;;;;5074472;28;20165;-79
2021/05/05 11:31:44;;;;;;;4.27;1.63;;;9.60;99.90;;;;;;5073400;28;20249;-81
2021/05/05 11:34:31;;;;;;;4.03;1.67;;;9.60;1.00;;;;;;5073461;28;20207;-79
2021/05/05 11:37:00;;;;;;;4.33;1.93;;;9.70;99.90;;;;;;5072819;28;20184;-80
2021/05/05 11:39:37;;;;;;;4.63;1.80;;;9.80;99.90;;;;;;5074549;28;20203;-78
2021/05/05 11:42:13;;;;;;;5.53;1.97;;;10.00;99.90;;;;;;5074112;28;20164;-79
2021/05/05 11:44:48;;;;;;;4.67;1.43;;;10.20;99.90;;;;;;5074609;28;20282;-79
2021/05/05 11:47:23;;;;;;;3.50;1.60;;;10.40;1.00;;;;;;5072308;28;20234;-78
2021/05/05 11:49:54;;;;;;;5.07;2.07;;;10.70;99.90;;;;;;5063895;28;20272;-79
2021/05/05 11:52:31;;;;;;;7.57;2.03;;;10.80;99.90;;;;;;5056157;28;20227;-80
2021/05/05 11:55:13;;;;;;;6.03;2.33;;;11.00;99.90;;;;;;5052976;28;20526;-80
2021/05/05 11:57:44;;;;;;;5.77;1.90;;;11.20;1.00;;;;;;5058685;28;20211;-78
2021/05/05 12:00:29;;;;;;;7.37;2.47;;;11.10;99.90;;;;;;5078746;28;20171;-78
2021/05/05 12:02:57;;;;;;;3.57;1.60;;;11.30;99.90;;;;;;5093379;28;20221;-80
2021/05/05 12:05:40;;;;;;;3.33;1.70;;;11.50;1.00;;;;;;5091972;28;20168;-78
2021/05/05 12:08:17;;;;;;;5.17;2.10;;;11.60;1.00;;;;;;5072676;28;20172;-78
2021/05/05 12:11:09;;;;;;;5.73;2.30;;;11.50;1.00;;;;;;5073279;28;20214;-79
2021/05/05 12:13:44;;;;;;;3.87;2.07;;;11.40;1.00;;;;;;5052204;28;20191;-81
2021/05/05 12:16:25;;;;;;;6.83;2.00;;;11.20;1.00;;;;;;5064744;28;20186;-79
2021/05/05 12:18:51;;;;;;;9.47;2.17;;;11.00;1.00;;;;;;5073590;28;20202;-80
2021/05/05 12:21:25;;;;;;;4.20;2.10;;;11.00;1.00;;;;;;5073342;28;20172;-80
2021/05/05 12:23:54;;;;;;;10.77;2.13;;;11.10;99.90;;;;;;5060366;28;20204;-78
2021/05/05 12:26:25;;;;;;;9.27;2.93;;;11.40;1.00;;;;;;5054140;28;20172;-78
2021/05/05 12:28:53;;;;;;;4.07;1.93;;;11.60;1.00;;;;;;5060228;28;20177;-77
2021/05/05 12:31:27;;;;;;;4.80;2.20;;;11.60;8.30;;;;;;5054242;28;20188;-79
2021/05/05 12:33:54;;;;;;;4.87;2.40;;;11.60;1.00;;;;;;5076633;28;20183;-77
2021/05/05 12:36:26;;;;;;;2.90;1.50;;;11.30;1.00;;;;;;5083610;28;20175;-78
2021/05/05 12:38:56;;;;;;;5.83;1.97;;;11.10;99.90;;;;;;5077865;28;20255;-78
2021/05/05 12:41:24;;;;;;;5.07;2.10;;;11.00;99.90;;;;;;5089508;28;20185;-79
2021/05/05 12:43:59;;;;;;;7.03;2.50;;;11.10;99.90;;;;;;5072954;28;20699;-78
2021/05/05 12:46:54;;;;;;;7.43;2.00;;;11.20;1.00;;;;;;5071393;28;20164;-81
2021/05/05 12:49:35;;;;;;;7.17;2.10;;;11.50;1.00;;;;;;5083418;28;20211;-80
2021/05/05 12:52:05;;;;;;;5.40;2.23;;;11.90;1.00;;;;;;5075058;28;20176;-79
2021/05/05 12:54:42;;;;;;;5.73;2.00;;;12.20;1.00;;;;;;5072294;28;20165;-80
2021/05/05 12:57:19;;;;;;;5.53;2.10;;;12.30;1.00;;;;;;5070761;28;20605;-80
2021/05/05 12:59:47;;;;;;;2.70;1.73;;;11.80;99.90;;;;;;5080895;28;20193;-79
2021/05/05 13:02:22;;;;;;;4.73;1.93;;;11.70;99.90;;;;;;5092342;28;20194;-80
2021/05/05 13:04:48;;;;;;;4.97;2.03;;;11.50;99.90;;;;;;5091161;28;20285;-81
2021/05/05 13:07:37;;;;;;;4.70;2.30;;;11.70;99.90;;;;;;5072952;28;20199;-80